createdAt,value
2019-06-27T00:00:44.129Z,19.01
2019-06-27T00:03:13.541Z,18.94
2019-06-27T00:05:42.937Z,18.90
2019-06-27T00:08:12.290Z,18.84
2019-06-27T00:10:41.638Z,18.77
2019-06-27T00:13:11.027Z,18.71
2019-06-27T00:15:40.402Z,18.67
2019-06-27T00:18:09.733Z,18.60
2019-06-27T00:20:39.110Z,18.53
2019-06-27T00:23:08.938Z,18.47
2019-06-27T00:25:38.295Z,18.42
2019-06-27T00:28:07.664Z,18.39
2019-06-27T00:30:37.032Z,18.33
2019-06-27T00:33:06.390Z,18.28
2019-06-27T00:35:35.755Z,18.21
2019-06-27T00:38:05.122Z,18.14
2019-06-27T00:40:34.483Z,18.11
2019-06-27T00:43:03.864Z,18.05
2019-06-27T00:45:34.227Z,17.99
2019-06-27T00:48:03.827Z,17.96
2019-06-27T00:50:33.197Z,17.89
2019-06-27T00:53:02.559Z,17.84
2019-06-27T00:55:31.937Z,17.78
2019-06-27T00:58:01.360Z,17.73
2019-06-27T01:00:30.731Z,17.65
2019-06-27T01:03:00.134Z,17.61
2019-06-27T01:05:29.500Z,17.55
2019-06-27T01:07:58.909Z,17.48
2019-06-27T01:10:28.287Z,17.40
2019-06-27T01:12:57.654Z,17.33
2019-06-27T01:15:27.032Z,17.27
2019-06-27T01:17:56.407Z,17.22
2019-06-27T01:20:25.774Z,17.15
2019-06-27T01:22:55.174Z,17.08
2019-06-27T01:25:24.524Z,17.04
2019-06-27T01:27:53.888Z,16.99
2019-06-27T01:30:23.676Z,16.94
2019-06-27T01:32:53.058Z,16.90
2019-06-27T01:35:22.434Z,16.84
2019-06-27T01:37:51.792Z,16.82
2019-06-27T01:40:21.209Z,16.79
2019-06-27T01:42:50.584Z,16.75
2019-06-27T01:45:25.500Z,16.69
2019-06-27T01:47:54.877Z,16.68
2019-06-27T01:50:24.253Z,16.63
2019-06-27T01:52:53.654Z,16.59
2019-06-27T01:55:24.071Z,16.55
2019-06-27T01:57:53.432Z,16.50
2019-06-27T02:00:23.639Z,16.45
2019-06-27T02:02:53.072Z,16.43
2019-06-27T02:05:22.420Z,16.39
2019-06-27T02:07:51.835Z,16.36
2019-06-27T02:10:21.330Z,16.31
2019-06-27T02:12:50.777Z,16.29
2019-06-27T02:15:22.256Z,16.24
2019-06-27T02:17:51.714Z,16.22
2019-06-27T02:20:21.618Z,16.18
2019-06-27T02:22:51.042Z,16.15
2019-06-27T02:25:20.954Z,16.11
2019-06-27T02:28:03.015Z,16.09
2019-06-27T02:30:30.132Z,16.05
2019-06-27T02:32:59.512Z,16.03
2019-06-27T02:35:28.932Z,15.99
2019-06-27T02:37:58.341Z,15.97
2019-06-27T02:40:27.724Z,15.94
2019-06-27T02:42:57.353Z,15.91
2019-06-27T02:45:26.892Z,15.90
2019-06-27T02:47:56.259Z,15.86
2019-06-27T02:50:25.701Z,15.83
2019-06-27T02:52:55.078Z,15.80
2019-06-27T02:55:24.455Z,15.78
2019-06-27T02:57:53.827Z,15.74
2019-06-27T03:00:23.355Z,15.72
2019-06-27T03:02:53.162Z,15.70
2019-06-27T03:05:22.513Z,15.67
2019-06-27T03:07:51.909Z,15.65
2019-06-27T03:10:21.383Z,15.68
2019-06-27T03:12:51.037Z,15.68
2019-06-27T03:15:20.591Z,15.68
2019-06-27T03:17:50.028Z,15.70
2019-06-27T03:20:19.402Z,15.69
2019-06-27T03:22:48.768Z,15.70
2019-06-27T03:25:18.177Z,15.75
2019-06-27T03:27:47.566Z,15.79
2019-06-27T03:30:17.700Z,15.85
2019-06-27T03:32:47.048Z,15.88
2019-06-27T03:35:16.398Z,15.87
2019-06-27T03:37:45.855Z,15.89
2019-06-27T03:40:15.497Z,15.91
2019-06-27T03:42:44.892Z,15.93
2019-06-27T03:45:16.108Z,15.95
2019-06-27T03:47:45.683Z,16.00
2019-06-27T03:50:15.900Z,16.06
2019-06-27T03:52:45.361Z,16.13
2019-06-27T03:55:14.703Z,16.18
2019-06-27T03:57:45.333Z,16.21
2019-06-27T04:00:17.970Z,16.28
2019-06-27T04:02:47.356Z,16.31
2019-06-27T04:05:16.709Z,16.40
2019-06-27T04:07:46.093Z,16.47
2019-06-27T04:10:17.327Z,16.53
2019-06-27T04:12:46.528Z,16.59
2019-06-27T04:15:16.006Z,16.64
2019-06-27T04:17:45.332Z,16.66
2019-06-27T04:20:14.777Z,16.67
2019-06-27T04:22:44.654Z,16.70
2019-06-27T04:25:14.145Z,16.73
2019-06-27T04:27:43.507Z,16.76
2019-06-27T04:30:13.343Z,16.75
2019-06-27T04:32:42.724Z,16.80
2019-06-27T04:35:15.977Z,16.82
2019-06-27T04:37:45.301Z,16.86
2019-06-27T04:40:14.817Z,16.89
2019-06-27T04:42:44.278Z,16.91
2019-06-27T04:45:14.341Z,16.94
2019-06-27T04:47:43.706Z,16.97
2019-06-27T04:50:13.091Z,16.99
2019-06-27T04:52:42.505Z,17.07
2019-06-27T04:55:12.048Z,17.10
2019-06-27T04:57:41.399Z,17.13
2019-06-27T05:00:12.279Z,17.17
2019-06-27T05:02:41.637Z,17.19
2019-06-27T05:05:11.094Z,17.22
2019-06-27T05:07:40.452Z,17.25
2019-06-27T05:10:10.060Z,17.28
2019-06-27T05:12:39.427Z,17.27
2019-06-27T05:15:08.780Z,17.30
2019-06-27T05:17:38.245Z,17.36
2019-06-27T05:20:07.620Z,17.40
2019-06-27T05:22:37.181Z,17.46
2019-06-27T05:25:06.708Z,17.55
2019-06-27T05:27:36.095Z,17.60
2019-06-27T05:30:09.872Z,17.70
2019-06-27T05:32:37.298Z,17.81
2019-06-27T05:35:06.734Z,17.93
2019-06-27T05:37:36.132Z,18.02
2019-06-27T05:40:07.897Z,18.11
2019-06-27T05:42:37.289Z,18.15
2019-06-27T05:45:08.309Z,18.22
2019-06-27T05:47:37.922Z,18.33
2019-06-27T05:50:07.875Z,18.41
2019-06-27T05:52:37.234Z,18.56
2019-06-27T05:55:09.397Z,18.78
2019-06-27T05:57:38.834Z,18.82
2019-06-27T06:00:26.888Z,19.07
2019-06-27T06:02:40.895Z,19.19
2019-06-27T06:05:11.284Z,19.54
2019-06-27T06:07:40.642Z,19.74
2019-06-27T06:10:10.198Z,20.20
2019-06-27T06:12:39.557Z,20.72
2019-06-27T06:15:09.284Z,21.50
2019-06-27T06:17:38.646Z,22.02
2019-06-27T06:20:09.554Z,22.60
2019-06-27T06:22:39.022Z,23.43
2019-06-27T06:25:08.734Z,24.18
2019-06-27T06:27:38.127Z,24.46
2019-06-27T06:30:08.629Z,25.12
2019-06-27T06:32:37.980Z,25.46
2019-06-27T06:35:08.370Z,26.07
2019-06-27T06:37:37.745Z,26.62
2019-06-27T06:40:07.939Z,26.90
2019-06-27T06:42:37.321Z,27.15
2019-06-27T06:45:07.225Z,27.21
2019-06-27T06:47:36.597Z,27.77
2019-06-27T06:50:06.506Z,28.09
2019-06-27T06:52:35.973Z,27.44
2019-06-27T06:55:06.606Z,27.52
2019-06-27T06:57:35.994Z,28.13
2019-06-27T07:00:08.073Z,28.66
2019-06-27T07:02:37.851Z,28.86
2019-06-27T07:05:07.817Z,29.36
2019-06-27T07:07:37.175Z,29.74
2019-06-27T07:10:08.568Z,30.36
2019-06-27T07:12:37.982Z,31.01
2019-06-27T07:15:08.904Z,31.29
2019-06-27T07:17:38.284Z,31.52
2019-06-27T07:20:07.925Z,31.79
2019-06-27T07:22:37.293Z,31.83
2019-06-27T07:25:07.620Z,32.04
2019-06-27T07:27:36.968Z,32.55
2019-06-27T07:30:07.864Z,32.90
2019-06-27T07:32:37.236Z,33.34
2019-06-27T07:35:07.713Z,33.64
2019-06-27T07:37:37.184Z,34.14
2019-06-27T07:40:07.687Z,34.18
2019-06-27T07:42:37.074Z,34.07
2019-06-27T07:45:07.415Z,34.02
2019-06-27T07:47:36.775Z,33.47
2019-06-27T07:50:08.385Z,34.11
2019-06-27T07:52:37.751Z,34.70
2019-06-27T07:55:07.557Z,34.66
2019-06-27T07:57:37.213Z,34.66
2019-06-27T08:00:10.844Z,34.36
2019-06-27T08:02:40.258Z,34.63
2019-06-27T08:05:10.950Z,34.93
2019-06-27T08:07:40.532Z,35.44
2019-06-27T08:10:11.173Z,35.48
2019-06-27T08:12:42.543Z,35.83
2019-06-27T08:15:12.132Z,36.18
2019-06-27T08:17:41.519Z,36.53
2019-06-27T08:20:11.505Z,36.74
2019-06-27T08:22:40.933Z,36.87
2019-06-27T08:25:10.660Z,37.08
2019-06-27T08:27:40.023Z,37.31
2019-06-27T08:30:10.340Z,37.33
2019-06-27T08:32:40.654Z,37.31
2019-06-27T08:35:10.174Z,37.06
2019-06-27T08:37:39.555Z,37.10
2019-06-27T08:40:09.638Z,37.35
2019-06-27T08:42:39.018Z,37.67
2019-06-27T08:45:09.024Z,37.92
2019-06-27T08:47:38.456Z,38.69
2019-06-27T08:50:09.492Z,38.69
2019-06-27T08:52:38.842Z,38.26
2019-06-27T08:55:08.266Z,37.92
2019-06-27T08:57:38.021Z,38.08
2019-06-27T09:00:09.546Z,38.08
2019-06-27T09:02:38.964Z,38.25
2019-06-27T09:05:08.681Z,38.36
2019-06-27T09:07:38.093Z,38.61
2019-06-27T09:10:08.011Z,38.46
2019-06-27T09:12:37.377Z,38.23
2019-06-27T09:15:07.509Z,38.40
2019-06-27T09:17:37.839Z,38.62
2019-06-27T09:20:09.312Z,38.77
2019-06-27T09:22:38.797Z,38.95
2019-06-27T09:25:08.602Z,38.98
2019-06-27T09:27:37.976Z,38.83
2019-06-27T09:30:11.192Z,39.05
2019-06-27T09:32:40.571Z,39.34
2019-06-27T09:35:10.477Z,39.41
2019-06-27T09:37:39.900Z,39.32
2019-06-27T09:40:11.309Z,39.51
2019-06-27T09:42:40.678Z,39.29
2019-06-27T09:45:10.962Z,39.61
2019-06-27T09:47:40.415Z,39.77
2019-06-27T09:50:11.131Z,39.62
2019-06-27T09:52:40.571Z,38.91
2019-06-27T09:55:10.395Z,38.84
2019-06-27T09:57:39.816Z,39.15
2019-06-27T10:00:10.920Z,39.30
2019-06-27T10:02:42.193Z,39.30
2019-06-27T10:05:11.816Z,39.48
2019-06-27T10:07:41.178Z,39.37
2019-06-27T10:10:11.107Z,38.47
2019-06-27T10:12:42.879Z,38.47
2019-06-27T10:15:11.749Z,38.44
2019-06-27T10:17:41.100Z,37.50
2019-06-27T10:20:11.021Z,37.56
2019-06-27T10:22:40.391Z,37.65
2019-06-27T10:25:09.996Z,37.01
2019-06-27T10:27:39.419Z,36.93
2019-06-27T10:30:09.357Z,36.96
2019-06-27T10:32:38.705Z,36.49
2019-06-27T10:35:08.286Z,36.47
2019-06-27T10:37:37.666Z,36.04
2019-06-27T10:40:09.775Z,35.94
2019-06-27T10:42:39.146Z,35.68
2019-06-27T10:45:09.485Z,33.87
2019-06-27T10:47:38.857Z,32.63
2019-06-27T10:50:08.560Z,31.74
2019-06-27T10:52:38.765Z,30.73
2019-06-27T10:55:09.054Z,29.57
2019-06-27T10:57:38.441Z,28.66
2019-06-27T11:00:08.553Z,28.10
2019-06-27T11:02:37.926Z,27.75
2019-06-27T11:05:08.053Z,27.45
2019-06-27T11:07:40.799Z,27.14
2019-06-27T11:10:08.742Z,26.91
2019-06-27T11:12:38.108Z,26.44
2019-06-27T11:15:08.481Z,26.06
2019-06-27T11:17:37.848Z,25.78
2019-06-27T11:20:07.376Z,25.66
2019-06-27T11:22:36.724Z,25.45
2019-06-27T11:25:07.928Z,25.31
2019-06-27T11:27:37.291Z,25.32
2019-06-27T11:30:08.401Z,25.37
2019-06-27T11:32:37.830Z,25.25
2019-06-27T11:35:07.554Z,25.11
2019-06-27T11:37:36.968Z,25.03
2019-06-27T11:40:12.166Z,24.98
2019-06-27T11:42:39.631Z,24.96
2019-06-27T11:45:09.228Z,24.98
2019-06-27T11:47:38.616Z,25.07
2019-06-27T11:50:09.499Z,25.10
2019-06-27T11:52:39.200Z,25.02
2019-06-27T11:55:08.885Z,24.95
2019-06-27T11:57:38.240Z,24.82
2019-06-27T12:00:08.653Z,24.66
2019-06-27T12:02:37.993Z,24.58
2019-06-27T12:05:07.695Z,24.55
2019-06-27T12:07:37.033Z,24.57
2019-06-27T12:10:07.582Z,24.59
2019-06-27T12:12:37.044Z,24.57
2019-06-27T12:15:08.116Z,24.54
2019-06-27T12:17:37.655Z,24.52
2019-06-27T12:20:09.986Z,24.49
2019-06-27T12:22:39.383Z,24.48
2019-06-27T12:25:08.981Z,24.53
2019-06-27T12:27:38.340Z,24.62
2019-06-27T12:30:08.517Z,24.66
2019-06-27T12:32:50.940Z,24.68
2019-06-27T12:35:10.107Z,24.65
2019-06-27T12:37:40.055Z,24.64
2019-06-27T12:40:11.028Z,24.62
2019-06-27T12:42:40.408Z,24.60
2019-06-27T12:45:10.127Z,24.55
2019-06-27T12:47:39.476Z,24.53
2019-06-27T12:50:09.778Z,24.48
2019-06-27T12:52:39.141Z,24.46
2019-06-27T12:55:08.973Z,24.42
2019-06-27T12:57:38.336Z,24.40
2019-06-27T13:00:09.368Z,24.41
2019-06-27T13:02:38.867Z,24.42
2019-06-27T13:05:08.602Z,24.41
2019-06-27T13:07:37.958Z,24.44
2019-06-27T13:10:07.572Z,24.51
2019-06-27T13:12:36.944Z,24.57
2019-06-27T13:15:06.848Z,24.53
2019-06-27T13:17:36.208Z,24.51
2019-06-27T13:20:07.290Z,24.49
2019-06-27T13:22:36.648Z,24.46
2019-06-27T13:25:06.369Z,24.45
2019-06-27T13:27:35.744Z,24.42
2019-06-27T13:30:07.222Z,24.42
2019-06-27T13:32:36.635Z,24.40
2019-06-27T13:35:06.586Z,24.39
2019-06-27T13:37:35.971Z,24.40
2019-06-27T13:40:07.926Z,24.44
2019-06-27T13:42:38.842Z,24.41
2019-06-27T13:45:08.649Z,24.38
2019-06-27T13:47:38.026Z,24.40
2019-06-27T13:50:08.543Z,24.46
2019-06-27T13:52:37.903Z,24.49
2019-06-27T13:55:08.585Z,24.49
2019-06-27T13:57:37.945Z,24.50
2019-06-27T14:00:08.782Z,24.50
2019-06-27T14:02:38.150Z,24.49
2019-06-27T14:05:07.708Z,24.48
2019-06-27T14:07:37.055Z,24.47
2019-06-27T14:10:09.468Z,24.45
2019-06-27T14:12:38.829Z,24.43
2019-06-27T14:15:09.415Z,24.41
2019-06-27T14:17:38.777Z,24.40
2019-06-27T14:20:08.882Z,24.41
2019-06-27T14:22:38.238Z,24.40
2019-06-27T14:25:08.596Z,24.40
2019-06-27T14:27:37.951Z,24.42
2019-06-27T14:30:08.191Z,24.43
2019-06-27T14:32:37.527Z,24.45
2019-06-27T14:35:15.363Z,24.47
2019-06-27T14:37:38.106Z,24.49
2019-06-27T14:40:09.096Z,24.49
2019-06-27T14:42:38.463Z,24.50
2019-06-27T14:45:08.197Z,24.53
2019-06-27T14:47:37.572Z,24.52
2019-06-27T14:50:07.284Z,24.48
2019-06-27T14:52:36.651Z,24.46
2019-06-27T14:55:07.455Z,24.45
2019-06-27T14:57:36.841Z,24.46
2019-06-27T15:00:08.186Z,24.48
2019-06-27T15:02:37.569Z,24.53
2019-06-27T15:05:07.461Z,24.56
2019-06-27T15:07:36.815Z,24.54
2019-06-27T15:10:09.723Z,24.55
2019-06-27T15:12:52.555Z,24.54
2019-06-27T15:15:10.482Z,24.52
2019-06-27T15:17:39.853Z,24.53
2019-06-27T15:20:09.279Z,24.54
2019-06-27T15:22:38.651Z,24.55
2019-06-27T15:25:09.668Z,24.53
2019-06-27T15:27:39.091Z,24.51
2019-06-27T15:30:08.707Z,24.50
2019-06-27T15:32:38.094Z,24.49
2019-06-27T15:35:08.295Z,24.52
2019-06-27T15:37:38.644Z,24.52
2019-06-27T15:40:09.616Z,24.52
2019-06-27T15:42:39.139Z,24.51
2019-06-27T15:45:09.466Z,24.52
2019-06-27T15:47:38.815Z,24.52
2019-06-27T15:50:08.432Z,24.53
2019-06-27T15:52:37.808Z,24.52
2019-06-27T15:55:11.859Z,24.51
2019-06-27T15:57:39.043Z,24.51
2019-06-27T16:00:09.649Z,24.50
2019-06-27T16:02:39.035Z,24.53
2019-06-27T16:05:08.817Z,24.50
2019-06-27T16:07:38.249Z,24.47
2019-06-27T16:10:08.544Z,24.46
2019-06-27T16:12:38.570Z,24.45
2019-06-27T16:15:08.483Z,24.44
2019-06-27T16:17:37.863Z,24.45
2019-06-27T16:20:08.147Z,24.44
2019-06-27T16:22:38.518Z,24.47
2019-06-27T16:25:08.327Z,24.46
2019-06-27T16:27:40.794Z,24.42
2019-06-27T16:30:11.392Z,24.44
2019-06-27T16:32:40.737Z,24.41
2019-06-27T16:35:11.613Z,24.39
2019-06-27T16:37:40.975Z,24.39
2019-06-27T16:40:10.576Z,24.40
2019-06-27T16:42:39.940Z,24.38
2019-06-27T16:45:10.809Z,24.38
2019-06-27T16:47:40.157Z,24.38
2019-06-27T16:50:09.756Z,24.38
2019-06-27T16:52:39.117Z,24.39
2019-06-27T16:55:08.624Z,24.36
2019-06-27T16:57:37.977Z,24.34
2019-06-27T17:00:07.472Z,24.32
2019-06-27T17:02:36.894Z,24.34
2019-06-27T17:05:08.052Z,24.34
2019-06-27T17:07:37.422Z,24.34
2019-06-27T17:10:07.229Z,24.30
2019-06-27T17:12:36.594Z,24.24
2019-06-27T17:15:09.190Z,24.20
2019-06-27T17:17:38.596Z,24.19
2019-06-27T17:20:09.650Z,24.18
2019-06-27T17:22:39.050Z,24.17
2019-06-27T17:25:09.086Z,24.15
2019-06-27T17:27:38.463Z,24.16
2019-06-27T17:30:09.635Z,24.13
2019-06-27T17:32:39.518Z,24.09
2019-06-27T17:35:09.746Z,24.05
2019-06-27T17:37:39.213Z,24.02
2019-06-27T17:40:10.295Z,24.01
2019-06-27T17:42:40.866Z,23.96
2019-06-27T17:45:10.585Z,23.94
2019-06-27T17:47:39.950Z,23.91
2019-06-27T17:50:09.558Z,23.91
2019-06-27T17:52:38.939Z,23.91
2019-06-27T17:55:08.990Z,23.88
2019-06-27T17:57:38.351Z,23.87
2019-06-27T18:00:08.972Z,23.83
2019-06-27T18:02:38.333Z,23.79
2019-06-27T18:05:08.193Z,23.75
2019-06-27T18:07:37.547Z,23.69
2019-06-27T18:10:07.970Z,23.65
2019-06-27T18:12:37.476Z,23.60
2019-06-27T18:15:07.569Z,23.58
2019-06-27T18:17:37.998Z,23.54
2019-06-27T18:20:08.705Z,23.51
2019-06-27T18:22:38.203Z,23.49
2019-06-27T18:25:07.565Z,23.44
2019-06-27T18:27:36.952Z,23.36
2019-06-27T18:30:09.455Z,23.31
2019-06-27T18:32:38.811Z,23.23
2019-06-27T18:35:08.330Z,23.18
2019-06-27T18:37:37.710Z,23.14
2019-06-27T18:40:07.693Z,23.07
2019-06-27T18:42:37.129Z,23.01
2019-06-27T18:45:08.027Z,23.30
2019-06-27T18:47:37.496Z,23.58
2019-06-27T18:50:07.696Z,23.73
2019-06-27T18:52:38.029Z,23.89
2019-06-27T18:55:07.769Z,23.74
2019-06-27T18:57:37.215Z,23.78
2019-06-27T19:00:08.506Z,23.60
2019-06-27T19:02:38.106Z,23.53
2019-06-27T19:05:07.939Z,23.48
2019-06-27T19:07:45.597Z,23.43
2019-06-27T19:10:09.084Z,23.39
2019-06-27T19:12:38.441Z,23.33
2019-06-27T19:15:09.217Z,23.27
2019-06-27T19:17:38.808Z,23.43
2019-06-27T19:20:19.493Z,23.28
2019-06-27T19:23:02.481Z,23.27
2019-06-27T19:25:33.484Z,23.30
2019-06-27T19:28:03.052Z,22.99
2019-06-27T19:30:32.473Z,22.73
2019-06-27T19:33:01.851Z,22.51
2019-06-27T19:35:31.580Z,22.30
2019-06-27T19:38:03.033Z,22.12
2019-06-27T19:40:33.303Z,21.95
2019-06-27T19:43:03.605Z,21.78
2019-06-27T19:45:34.023Z,21.64
2019-06-27T19:48:03.416Z,21.50
2019-06-27T19:50:32.761Z,21.37
2019-06-27T19:53:02.150Z,21.26
2019-06-27T19:55:31.712Z,21.12
2019-06-27T19:58:01.754Z,21.00
2019-06-27T20:00:31.329Z,20.88
2019-06-27T20:03:00.687Z,20.76
2019-06-27T20:05:30.057Z,20.65
2019-06-27T20:07:59.418Z,20.55
2019-06-27T20:10:28.935Z,20.48
2019-06-27T20:12:58.338Z,20.39
2019-06-27T20:15:27.705Z,20.30
2019-06-27T20:17:57.076Z,20.19
2019-06-27T20:20:26.494Z,20.09
2019-06-27T20:22:55.869Z,19.99
2019-06-27T20:25:25.313Z,19.89
2019-06-27T20:27:54.674Z,19.82
2019-06-27T20:30:24.191Z,19.74
2019-06-27T20:32:53.552Z,19.67
2019-06-27T20:35:22.915Z,19.58
2019-06-27T20:37:52.292Z,19.49
2019-06-27T20:40:22.513Z,19.41
2019-06-27T20:42:51.944Z,19.35
2019-06-27T20:45:22.048Z,19.27
2019-06-27T20:47:51.374Z,19.21
2019-06-27T20:50:21.002Z,19.16
2019-06-27T20:52:50.357Z,19.10
2019-06-27T20:55:19.737Z,19.03
2019-06-27T20:57:49.097Z,18.97
2019-06-27T21:00:20.818Z,18.90
2019-06-27T21:02:50.188Z,18.85
2019-06-27T21:05:19.540Z,18.78
2019-06-27T21:07:48.902Z,18.73
2019-06-27T21:10:19.016Z,18.68
2019-06-27T21:12:48.402Z,18.63
2019-06-27T21:15:17.978Z,18.57
2019-06-27T21:17:47.617Z,18.50
2019-06-27T21:20:17.036Z,18.44
2019-06-27T21:22:46.396Z,18.40
2019-06-27T21:25:15.910Z,18.34
2019-06-27T21:27:45.266Z,18.27
2019-06-27T21:30:15.260Z,18.22
2019-06-27T21:32:48.207Z,18.17
2019-06-27T21:35:15.735Z,18.10
2019-06-27T21:37:45.098Z,18.07
2019-06-27T21:40:15.024Z,18.02
2019-06-27T21:42:44.411Z,17.99
2019-06-27T21:45:14.138Z,17.95
2019-06-27T21:47:43.489Z,17.91
2019-06-27T21:50:13.130Z,17.85
2019-06-27T21:52:42.488Z,17.82
2019-06-27T21:55:12.019Z,17.78
2019-06-27T21:57:41.416Z,17.72
2019-06-27T22:00:11.415Z,17.69
2019-06-27T22:02:42.399Z,17.65
2019-06-27T22:05:12.213Z,17.60
2019-06-27T22:07:41.565Z,17.56
2019-06-27T22:10:12.461Z,17.52
2019-06-27T22:12:41.862Z,17.48
2019-06-27T22:15:11.668Z,17.45
2019-06-27T22:17:41.020Z,17.41
2019-06-27T22:20:15.744Z,17.38
2019-06-27T22:22:41.978Z,17.33
2019-06-27T22:25:11.880Z,17.31
2019-06-27T22:27:42.762Z,17.25
2019-06-27T22:30:13.548Z,17.20
2019-06-27T22:32:42.932Z,17.15
2019-06-27T22:35:12.542Z,17.11
2019-06-27T22:37:59.933Z,17.06
2019-06-27T22:40:47.398Z,17.00
2019-06-27T22:43:34.768Z,16.96
2019-06-27T22:46:22.530Z,16.90
2019-06-27T22:48:51.345Z,16.84
2019-06-27T22:51:31.200Z,16.77
2019-06-27T22:54:02.548Z,16.72
2019-06-27T22:56:31.852Z,16.67
2019-06-27T22:59:01.222Z,16.63
2019-06-27T23:01:30.579Z,16.58
2019-06-27T23:03:59.938Z,16.54
2019-06-27T23:06:29.359Z,16.52
2019-06-27T23:08:58.754Z,16.47
2019-06-27T23:11:28.140Z,16.43
2019-06-27T23:13:57.493Z,16.40
2019-06-27T23:16:26.874Z,16.34
2019-06-27T23:18:56.238Z,16.28
2019-06-27T23:21:25.599Z,16.23
2019-06-27T23:23:55.056Z,16.19
2019-06-27T23:26:24.401Z,16.15
2019-06-27T23:28:54.739Z,16.09
2019-06-27T23:31:24.093Z,16.03
2019-06-27T23:33:53.495Z,15.98
2019-06-27T23:36:22.841Z,15.92
2019-06-27T23:38:52.196Z,15.88
2019-06-27T23:41:21.572Z,15.82
2019-06-27T23:43:50.943Z,15.74
2019-06-27T23:46:40.124Z,15.69
2019-06-27T23:49:12.059Z,15.63
2019-06-27T23:51:41.462Z,15.58
2019-06-27T23:54:10.824Z,15.54
2019-06-27T23:56:40.179Z,15.52
2019-06-27T23:59:09.526Z,15.47
